Time;durP1;ratioP1;P1;durP2;ratioP2;P2;SDS_P1;SDS_P2;PMS_P1;PMS_P2;Temp;Humidity;BMP_temperature;BMP_pressure;BME280_temperature;BME280_humidity;BME280_pressure;Samples;Min_cycle;Max_cycle;Signal;HPM_P1;HPM_P2
2020/12/06 00:02:04;;;;;;;38.60;25.33;;;;;;;;;;5090523;28;20373;-56
2020/12/06 00:04:29;;;;;;;40.63;25.53;;;;;;;;;;5088058;28;20028;-54
2020/12/06 00:06:55;;;;;;;39.67;24.13;;;;;;;;;;5088396;28;20419;-54
2020/12/06 00:09:20;;;;;;;38.00;24.17;;;;;;;;;;5084053;28;20075;-55
2020/12/06 00:11:45;;;;;;;38.10;24.27;;;;;;;;;;5084012;28;20023;-54
2020/12/06 00:14:11;;;;;;;36.13;24.63;;;;;;;;;;5091380;28;20043;-55
2020/12/06 00:16:36;;;;;;;41.80;26.03;;;;;;;;;;5089409;28;20039;-55
2020/12/06 00:19:01;;;;;;;42.03;25.17;;;;;;;;;;5083393;28;20023;-52
2020/12/06 00:21:26;;;;;;;42.17;25.00;;;;;;;;;;5091644;28;20008;-50
2020/12/06 00:23:52;;;;;;;39.33;26.60;;;;;;;;;;5091165;28;20067;-53
2020/12/06 00:26:21;;;;;;;37.27;23.43;;;;;;;;;;5091840;28;20051;-53
2020/12/06 00:28:46;;;;;;;38.77;25.50;;;;;;;;;;5087398;28;20042;-56
2020/12/06 00:31:11;;;;;;;41.53;25.10;;;;;;;;;;5089737;28;20514;-55
2020/12/06 00:33:37;;;;;;;39.03;25.40;;;;;;;;;;5083879;28;20381;-54
2020/12/06 00:36:02;;;;;;;39.23;25.10;;;;;;;;;;5091382;28;20020;-55
2020/12/06 00:38:27;;;;;;;39.43;25.07;;;;;;;;;;5080047;28;20108;-54
2020/12/06 00:40:53;;;;;;;38.00;24.20;;;;;;;;;;5093006;28;20474;-56
2020/12/06 00:43:18;;;;;;;43.87;26.37;;;;;;;;;;5093272;28;20416;-56
2020/12/06 00:45:43;;;;;;;44.77;27.10;;;;;;;;;;5096038;28;20020;-55
2020/12/06 00:48:08;;;;;;;42.33;24.73;;;;;;;;;;5087972;28;20466;-55
2020/12/06 00:50:33;;;;;;;41.93;24.93;;;;;;;;;;5095371;28;20004;-55
2020/12/06 00:52:59;;;;;;;41.70;25.83;;;;;;;;;;5094791;28;20012;-55
2020/12/06 00:55:24;;;;;;;40.20;25.27;;;;;;;;;;5095525;28;20375;-54
2020/12/06 00:57:49;;;;;;;41.20;24.77;;;;;;;;;;5092227;28;20455;-55
2020/12/06 01:00:14;;;;;;;37.53;24.97;;;;;;;;;;5087289;28;20095;-55
2020/12/06 01:02:40;;;;;;;40.60;25.93;;;;;;;;;;5095298;28;20467;-54
2020/12/06 01:05:06;;;;;;;48.70;28.93;;;;;;;;;;5095819;28;20024;-53
2020/12/06 01:07:35;;;;;;;43.73;27.30;;;;;;;;;;5094652;28;20016;-54
2020/12/06 01:10:00;;;;;;;44.97;26.20;;;;;;;;;;5084377;28;20020;-55
2020/12/06 01:12:26;;;;;;;43.03;27.10;;;;;;;;;;5095246;28;20035;-56
2020/12/06 01:14:51;;;;;;;42.33;26.63;;;;;;;;;;5095062;28;20053;-55
2020/12/06 01:17:16;;;;;;;39.93;25.57;;;;;;;;;;5095169;28;20022;-55
2020/12/06 01:19:41;;;;;;;45.27;28.60;;;;;;;;;;5092075;28;20032;-55
2020/12/06 01:22:07;;;;;;;41.07;25.67;;;;;;;;;;5093843;28;20052;-55
2020/12/06 01:24:32;;;;;;;43.43;26.53;;;;;;;;;;5093586;28;20481;-56
2020/12/06 01:26:57;;;;;;;38.50;25.57;;;;;;;;;;5087121;28;20024;-56
2020/12/06 01:29:22;;;;;;;43.80;25.13;;;;;;;;;;5091600;28;20031;-54
2020/12/06 01:31:48;;;;;;;40.57;24.90;;;;;;;;;;5095371;28;20019;-55
2020/12/06 01:34:14;;;;;;;40.17;25.73;;;;;;;;;;5091483;28;20012;-54
2020/12/06 01:36:39;;;;;;;43.80;25.97;;;;;;;;;;5095193;28;20394;-57
2020/12/06 01:39:05;;;;;;;42.67;24.90;;;;;;;;;;5088430;28;20024;-55
2020/12/06 01:41:30;;;;;;;40.53;25.87;;;;;;;;;;5094725;28;20016;-54
2020/12/06 01:43:56;;;;;;;40.47;25.00;;;;;;;;;;5094646;28;20470;-56
2020/12/06 01:46:23;;;;;;;40.47;24.60;;;;;;;;;;5094717;28;20023;-55
2020/12/06 01:48:48;;;;;;;41.77;25.27;;;;;;;;;;5091648;28;20102;-56
2020/12/06 01:51:15;;;;;;;40.80;24.40;;;;;;;;;;5093948;28;20050;-54
2020/12/06 01:53:40;;;;;;;36.60;23.83;;;;;;;;;;5094168;28;20504;-54
2020/12/06 01:56:05;;;;;;;39.27;25.60;;;;;;;;;;5094392;28;20043;-56
2020/12/06 01:58:31;;;;;;;42.50;25.53;;;;;;;;;;5088609;28;20301;-58
2020/12/06 02:00:56;;;;;;;43.03;25.50;;;;;;;;;;5088800;28;20024;-57
2020/12/06 02:03:21;;;;;;;40.20;26.20;;;;;;;;;;5094211;28;20031;-56
2020/12/06 02:05:46;;;;;;;40.30;24.53;;;;;;;;;;5094410;28;20498;-54
2020/12/06 02:08:11;;;;;;;36.83;24.20;;;;;;;;;;5090737;28;20257;-55
2020/12/06 02:10:37;;;;;;;43.50;26.23;;;;;;;;;;5094053;28;20032;-55
2020/12/06 02:13:02;;;;;;;40.80;25.60;;;;;;;;;;5094556;28;20041;-56
2020/12/06 02:15:27;;;;;;;50.00;30.67;;;;;;;;;;5092991;28;20107;-55
2020/12/06 02:17:52;;;;;;;45.90;26.77;;;;;;;;;;5092189;28;20451;-56
2020/12/06 02:20:18;;;;;;;48.63;27.07;;;;;;;;;;5091961;28;20016;-54
2020/12/06 02:22:43;;;;;;;47.40;28.30;;;;;;;;;;5091705;28;20589;-56
2020/12/06 02:25:08;;;;;;;45.13;26.00;;;;;;;;;;5092199;28;20030;-55
2020/12/06 02:27:34;;;;;;;46.53;28.03;;;;;;;;;;5091858;28;20028;-54
2020/12/06 02:29:59;;;;;;;48.30;28.93;;;;;;;;;;5083475;28;20024;-56
2020/12/06 02:32:24;;;;;;;50.80;29.87;;;;;;;;;;5093876;28;20088;-57
2020/12/06 02:34:50;;;;;;;46.80;28.13;;;;;;;;;;5078647;28;20090;-56
2020/12/06 02:37:15;;;;;;;48.27;29.50;;;;;;;;;;5091696;28;20140;-55
2020/12/06 02:39:40;;;;;;;46.40;27.40;;;;;;;;;;5089172;28;20440;-55
2020/12/06 02:42:06;;;;;;;46.33;27.83;;;;;;;;;;5092381;28;20031;-55
2020/12/06 02:44:31;;;;;;;47.83;29.37;;;;;;;;;;5094241;28;20035;-55
2020/12/06 02:46:57;;;;;;;41.90;26.47;;;;;;;;;;5092698;28;20031;-56
2020/12/06 02:49:23;;;;;;;46.77;26.53;;;;;;;;;;5090325;28;20378;-55
2020/12/06 02:51:48;;;;;;;55.10;29.80;;;;;;;;;;5091699;28;20024;-55
2020/12/06 02:54:13;;;;;;;44.87;28.37;;;;;;;;;;5091563;28;20031;-56
2020/12/06 02:56:39;;;;;;;47.27;27.70;;;;;;;;;;5091836;28;20024;-55
2020/12/06 02:59:04;;;;;;;42.90;26.67;;;;;;;;;;5089061;28;20117;-56
2020/12/06 03:01:32;;;;;;;43.07;26.30;;;;;;;;;;5091544;28;20024;-54
2020/12/06 03:03:58;;;;;;;43.50;27.20;;;;;;;;;;5091984;28;20024;-56
2020/12/06 03:06:23;;;;;;;43.27;25.23;;;;;;;;;;5091977;28;20451;-55
2020/12/06 03:08:49;;;;;;;44.63;26.10;;;;;;;;;;5089782;28;20012;-56
2020/12/06 03:11:14;;;;;;;48.63;28.03;;;;;;;;;;5091375;28;20031;-56
2020/12/06 03:13:39;;;;;;;44.93;27.63;;;;;;;;;;5091653;28;20028;-54
2020/12/06 03:16:05;;;;;;;41.57;26.37;;;;;;;;;;5092983;28;20023;-50
2020/12/06 03:18:30;;;;;;;41.00;24.63;;;;;;;;;;5089773;28;20024;-56
2020/12/06 03:20:56;;;;;;;43.57;25.30;;;;;;;;;;5091709;28;20111;-56
2020/12/06 03:23:21;;;;;;;40.83;25.07;;;;;;;;;;5091775;28;20044;-54
2020/12/06 03:25:46;;;;;;;40.07;24.80;;;;;;;;;;5091819;28;20085;-56
2020/12/06 03:28:11;;;;;;;45.80;27.07;;;;;;;;;;5089362;28;20265;-56
2020/12/06 03:30:36;;;;;;;43.43;25.53;;;;;;;;;;5092175;28;20513;-56
2020/12/06 03:33:02;;;;;;;43.53;25.50;;;;;;;;;;5092546;28;20107;-56
2020/12/06 03:35:27;;;;;;;48.63;30.63;;;;;;;;;;5087276;28;20162;-56
2020/12/06 03:37:52;;;;;;;44.43;26.00;;;;;;;;;;5091819;28;20072;-56
2020/12/06 03:40:17;;;;;;;42.17;25.87;;;;;;;;;;5090030;28;20069;-56
2020/12/06 03:42:42;;;;;;;51.07;30.07;;;;;;;;;;5092563;28;20065;-53
2020/12/06 03:45:08;;;;;;;50.23;29.07;;;;;;;;;;5091464;28;20023;-55
2020/12/06 03:47:33;;;;;;;55.93;34.60;;;;;;;;;;5090988;28;20024;-53
2020/12/06 03:49:58;;;;;;;45.30;27.63;;;;;;;;;;5088992;28;20485;-56
2020/12/06 03:52:24;;;;;;;56.60;34.00;;;;;;;;;;5091963;28;20061;-56
2020/12/06 03:54:49;;;;;;;51.60;28.20;;;;;;;;;;5092139;28;20020;-55
2020/12/06 03:57:23;;;;;;;58.37;35.87;;;;;;;;;;5090446;28;20026;-55
2020/12/06 03:59:48;;;;;;;54.13;30.67;;;;;;;;;;5089291;28;20028;-57
2020/12/06 04:02:14;;;;;;;49.43;29.03;;;;;;;;;;5092407;28;20262;-54
2020/12/06 04:04:39;;;;;;;48.07;29.77;;;;;;;;;;5087639;28;20065;-56
2020/12/06 04:07:04;;;;;;;53.00;29.17;;;;;;;;;;5091391;28;20490;-52
2020/12/06 04:09:29;;;;;;;59.67;36.17;;;;;;;;;;5088769;28;20023;-54
2020/12/06 04:11:55;;;;;;;48.00;28.93;;;;;;;;;;5091697;28;20016;-56
2020/12/06 04:14:20;;;;;;;47.17;27.60;;;;;;;;;;5091994;28;20012;-55
2020/12/06 04:16:45;;;;;;;44.40;27.43;;;;;;;;;;5091815;28;20024;-56
2020/12/06 04:19:10;;;;;;;45.47;27.53;;;;;;;;;;5088726;28;20023;-55
2020/12/06 04:21:35;;;;;;;48.93;28.43;;;;;;;;;;5090791;28;20030;-55
2020/12/06 04:24:01;;;;;;;49.13;29.00;;;;;;;;;;5091181;28;20081;-53
2020/12/06 04:26:26;;;;;;;54.10;31.90;;;;;;;;;;5091741;28;20047;-55
2020/12/06 04:28:51;;;;;;;49.07;29.07;;;;;;;;;;5088295;28;20024;-56
2020/12/06 04:31:16;;;;;;;49.67;28.67;;;;;;;;;;5090965;28;20463;-56
2020/12/06 04:33:41;;;;;;;46.23;27.30;;;;;;;;;;5091727;28;20032;-55
2020/12/06 04:36:07;;;;;;;44.70;26.57;;;;;;;;;;5083423;28;20052;-54
2020/12/06 04:38:32;;;;;;;42.43;25.00;;;;;;;;;;5087940;28;20032;-54
2020/12/06 04:40:58;;;;;;;43.23;26.30;;;;;;;;;;5090208;28;20024;-52
2020/12/06 04:43:24;;;;;;;43.60;26.90;;;;;;;;;;5091588;28;20028;-52
2020/12/06 04:45:49;;;;;;;44.87;27.20;;;;;;;;;;5090765;28;20024;-57
2020/12/06 04:48:20;;;;;;;49.60;30.33;;;;;;;;;;5088418;28;20522;-54
2020/12/06 04:50:48;;;;;;;46.67;28.10;;;;;;;;;;5091969;28;20027;-54
2020/12/06 04:53:16;;;;;;;60.67;32.33;;;;;;;;;;5090803;28;20024;-54
2020/12/06 04:55:44;;;;;;;57.10;31.07;;;;;;;;;;5091901;28;20032;-54
2020/12/06 04:58:14;;;;;;;57.40;34.20;;;;;;;;;;5087615;28;20032;-57
2020/12/06 05:00:39;;;;;;;57.33;34.87;;;;;;;;;;5091795;28;20051;-53
2020/12/06 05:03:08;;;;;;;51.87;31.63;;;;;;;;;;5090359;28;20467;-56
2020/12/06 05:05:35;;;;;;;54.57;31.80;;;;;;;;;;5091707;28;20498;-51
2020/12/06 05:08:04;;;;;;;49.47;30.13;;;;;;;;;;5089834;28;20074;-55
2020/12/06 05:10:30;;;;;;;41.77;27.07;;;;;;;;;;5090018;28;20430;-56
2020/12/06 05:12:55;;;;;;;45.47;26.40;;;;;;;;;;5090631;28;20176;-56
2020/12/06 05:15:20;;;;;;;53.27;32.27;;;;;;;;;;5091282;28;20099;-55
2020/12/06 05:17:46;;;;;;;46.03;27.03;;;;;;;;;;5090972;28;20078;-56
2020/12/06 05:20:11;;;;;;;44.83;28.03;;;;;;;;;;5088150;28;20035;-55
2020/12/06 05:22:45;;;;;;;41.77;26.07;;;;;;;;;;5088186;28;20044;-56
2020/12/06 05:25:10;;;;;;;41.90;26.63;;;;;;;;;;5092795;28;20048;-54
2020/12/06 05:27:35;;;;;;;45.33;27.50;;;;;;;;;;5094618;28;20052;-52
2020/12/06 05:30:02;;;;;;;44.80;26.17;;;;;;;;;;5092058;28;20048;-56
2020/12/06 05:32:28;;;;;;;53.30;32.60;;;;;;;;;;5095034;28;20027;-52
2020/12/06 05:34:54;;;;;;;50.93;28.63;;;;;;;;;;5085576;28;20078;-55
2020/12/06 05:37:19;;;;;;;49.73;31.03;;;;;;;;;;5093199;28;20425;-54
2020/12/06 05:39:44;;;;;;;51.70;29.50;;;;;;;;;;5091573;28;20016;-52
2020/12/06 05:42:09;;;;;;;48.50;28.73;;;;;;;;;;5094679;28;20015;-54
2020/12/06 05:44:35;;;;;;;52.33;28.87;;;;;;;;;;5093082;28;20028;-57
2020/12/06 05:47:11;;;;;;;52.30;30.37;;;;;;;;;;5090899;28;20031;-57
2020/12/06 05:49:37;;;;;;;56.67;33.10;;;;;;;;;;5091757;28;20028;-54
2020/12/06 05:52:02;;;;;;;49.97;30.80;;;;;;;;;;5092720;28;20519;-56
2020/12/06 05:54:27;;;;;;;46.00;28.33;;;;;;;;;;5093020;28;20020;-55
2020/12/06 05:56:53;;;;;;;44.20;27.80;;;;;;;;;;5094129;28;20031;-56
2020/12/06 05:59:20;;;;;;;41.40;25.90;;;;;;;;;;5090806;28;20209;-55
2020/12/06 06:01:46;;;;;;;40.00;26.87;;;;;;;;;;5093279;28;20027;-53
2020/12/06 06:04:13;;;;;;;42.77;26.57;;;;;;;;;;5093954;28;20050;-54
2020/12/06 06:06:39;;;;;;;40.83;25.60;;;;;;;;;;5093157;28;20028;-51
2020/12/06 06:09:05;;;;;;;39.77;25.13;;;;;;;;;;5089211;28;20020;-56
2020/12/06 06:11:31;;;;;;;39.77;25.27;;;;;;;;;;5092702;28;20027;-54
2020/12/06 06:14:00;;;;;;;39.37;24.20;;;;;;;;;;5094118;28;20020;-55
2020/12/06 06:16:35;;;;;;;34.40;20.47;;;;;;;;;;5093719;28;20111;-54
2020/12/06 06:19:01;;;;;;;37.95;23.38;;;;;;;;;;5089399;28;20024;-55
2020/12/06 06:21:27;;;;;;;38.17;22.70;;;;;;;;;;5094127;28;20103;-54
2020/12/06 06:23:53;;;;;;;37.43;23.50;;;;;;;;;;5092900;28;20115;-54
2020/12/06 06:26:19;;;;;;;42.50;27.10;;;;;;;;;;5093316;28;20108;-53
2020/12/06 06:28:45;;;;;;;41.80;26.50;;;;;;;;;;5089105;28;20520;-54
2020/12/06 06:31:11;;;;;;;41.30;26.37;;;;;;;;;;5090332;28;20419;-54
2020/12/06 06:33:36;;;;;;;40.60;26.43;;;;;;;;;;5091100;28;20454;-55
2020/12/06 06:36:01;;;;;;;45.13;27.27;;;;;;;;;;5093531;28;20016;-55
2020/12/06 06:38:27;;;;;;;40.27;25.57;;;;;;;;;;5089954;28;20017;-56
2020/12/06 06:40:53;;;;;;;41.40;24.97;;;;;;;;;;5091912;28;20028;-54
2020/12/06 06:43:18;;;;;;;41.80;27.17;;;;;;;;;;5092196;28;20028;-50
2020/12/06 06:45:44;;;;;;;39.40;24.63;;;;;;;;;;5092114;28;20051;-54
2020/12/06 06:48:16;;;;;;;39.63;24.20;;;;;;;;;;5090753;28;20020;-54
2020/12/06 06:50:41;;;;;;;40.23;24.83;;;;;;;;;;5084681;28;20256;-51
2020/12/06 06:53:08;;;;;;;40.13;24.47;;;;;;;;;;5092879;28;20015;-55
2020/12/06 06:55:52;;;;;;;39.07;24.63;;;;;;;;;;5087254;28;20039;-55
2020/12/06 06:58:21;;;;;;;40.47;23.93;;;;;;;;;;5085888;28;20506;-52
2020/12/06 07:00:46;;;;;;;43.83;25.93;;;;;;;;;;5087473;28;20024;-55
2020/12/06 07:03:12;;;;;;;40.97;25.27;;;;;;;;;;5093170;28;20027;-56
2020/12/06 07:05:38;;;;;;;38.43;24.03;;;;;;;;;;5093436;28;20024;-53
2020/12/06 07:08:08;;;;;;;39.30;25.23;;;;;;;;;;5090980;28;20024;-51
2020/12/06 07:10:34;;;;;;;41.03;25.47;;;;;;;;;;5087520;28;20477;-52
2020/12/06 07:13:00;;;;;;;40.70;26.80;;;;;;;;;;5092857;28;20024;-53
2020/12/06 07:15:26;;;;;;;34.13;23.00;;;;;;;;;;5093278;28;20370;-54
2020/12/06 07:17:52;;;;;;;39.73;25.10;;;;;;;;;;5092775;28;20093;-51
2020/12/06 07:20:18;;;;;;;38.90;25.57;;;;;;;;;;5090191;28;20482;-56
2020/12/06 07:22:43;;;;;;;41.43;28.03;;;;;;;;;;5091942;28;20044;-56
2020/12/06 07:25:09;;;;;;;46.27;29.70;;;;;;;;;;5092260;28;20028;-55
2020/12/06 07:27:35;;;;;;;42.07;28.73;;;;;;;;;;5092266;28;20533;-52
2020/12/06 07:30:01;;;;;;;42.37;26.43;;;;;;;;;;5086934;28;20107;-54
2020/12/06 07:32:26;;;;;;;40.27;26.87;;;;;;;;;;5092635;28;20372;-56
2020/12/06 07:34:51;;;;;;;42.10;26.50;;;;;;;;;;5092006;28;20024;-57
2020/12/06 07:37:16;;;;;;;36.93;24.00;;;;;;;;;;5091058;28;20050;-55
2020/12/06 07:39:43;;;;;;;40.13;25.47;;;;;;;;;;5088379;28;20028;-55
2020/12/06 07:42:08;;;;;;;40.13;23.80;;;;;;;;;;5092397;28;20024;-56
2020/12/06 07:44:42;;;;;;;38.30;25.03;;;;;;;;;;5091030;28;20398;-55
2020/12/06 07:47:08;;;;;;;40.53;24.57;;;;;;;;;;5090412;28;20020;-55
2020/12/06 07:50:02;;;;;;;38.90;25.93;;;;;;;;;;5089389;28;20374;-55
2020/12/06 07:52:27;;;;;;;41.23;26.00;;;;;;;;;;5074068;28;20509;-55
2020/12/06 07:54:56;;;;;;;40.33;25.93;;;;;;;;;;5085940;28;20052;-57
2020/12/06 07:57:24;;;;;;;37.27;25.30;;;;;;;;;;5092146;28;20444;-56
2020/12/06 07:59:49;;;;;;;36.93;24.27;;;;;;;;;;5089291;28;20102;-53
2020/12/06 08:02:16;;;;;;;38.03;24.47;;;;;;;;;;5092254;28;20472;-56
2020/12/06 08:04:41;;;;;;;37.33;24.63;;;;;;;;;;5092062;28;20024;-55
2020/12/06 08:07:11;;;;;;;34.40;23.53;;;;;;;;;;5091409;28;20156;-54
2020/12/06 08:09:38;;;;;;;37.77;24.53;;;;;;;;;;5089365;28;20028;-57
2020/12/06 08:12:04;;;;;;;35.73;24.03;;;;;;;;;;5091234;28;20020;-57
2020/12/06 08:14:30;;;;;;;32.03;22.90;;;;;;;;;;5092153;28;20145;-54
2020/12/06 08:16:56;;;;;;;35.87;23.30;;;;;;;;;;5090696;28;20119;-55
2020/12/06 08:19:22;;;;;;;39.50;25.10;;;;;;;;;;5089142;28;20024;-54
2020/12/06 08:21:48;;;;;;;36.70;24.57;;;;;;;;;;5091664;28;20048;-57
2020/12/06 08:24:17;;;;;;;37.17;25.33;;;;;;;;;;5089965;28;20477;-57
2020/12/06 08:26:42;;;;;;;36.53;24.30;;;;;;;;;;5092011;28;20032;-53
2020/12/06 08:29:07;;;;;;;36.80;24.80;;;;;;;;;;5088687;28;20020;-55
2020/12/06 08:31:33;;;;;;;33.53;23.63;;;;;;;;;;5091362;28;20012;-56
2020/12/06 08:34:11;;;;;;;34.23;24.50;;;;;;;;;;5089310;28;20020;-56
2020/12/06 08:36:36;;;;;;;35.47;23.97;;;;;;;;;;5086269;28;20023;-56
2020/12/06 08:39:01;;;;;;;33.03;23.63;;;;;;;;;;5085749;28;20020;-56
2020/12/06 08:41:27;;;;;;;36.67;25.27;;;;;;;;;;5091711;28;20374;-56
2020/12/06 08:43:52;;;;;;;36.80;25.37;;;;;;;;;;5091460;28;20441;-55
2020/12/06 08:46:17;;;;;;;34.13;24.73;;;;;;;;;;5091433;28;20095;-53
2020/12/06 08:48:43;;;;;;;32.90;23.30;;;;;;;;;;5086842;28;20028;-55
2020/12/06 08:51:27;;;;;;;35.37;24.03;;;;;;;;;;5084180;28;20070;-54
2020/12/06 08:53:53;;;;;;;35.00;24.33;;;;;;;;;;5073095;28;20025;-51
2020/12/06 08:56:38;;;;;;;33.03;23.97;;;;;;;;;;5085516;28;20020;-56
2020/12/06 08:59:05;;;;;;;37.42;25.40;;;;;;;;;;5084204;28;20036;-56
2020/12/06 09:01:31;;;;;;;35.23;24.30;;;;;;;;;;5095070;28;20125;-54
2020/12/06 09:03:57;;;;;;;37.00;25.67;;;;;;;;;;5095314;28;20051;-52
2020/12/06 09:06:22;;;;;;;35.80;24.90;;;;;;;;;;5095301;28;20031;-53
2020/12/06 09:08:47;;;;;;;36.90;26.33;;;;;;;;;;5092271;28;20027;-52
2020/12/06 09:11:20;;;;;;;37.00;26.90;;;;;;;;;;5093612;28;20020;-55
2020/12/06 09:13:45;;;;;;;39.45;25.90;;;;;;;;;;5087555;28;20042;-54
2020/12/06 09:16:11;;;;;;;36.72;25.75;;;;;;;;;;5094725;28;20538;-56
2020/12/06 09:18:37;;;;;;;39.80;27.27;;;;;;;;;;5085440;28;20028;-53
2020/12/06 09:21:03;;;;;;;35.45;25.48;;;;;;;;;;5094345;28;20428;-53
2020/12/06 09:23:28;;;;;;;33.75;24.20;;;;;;;;;;5094445;28;20048;-56
2020/12/06 09:25:54;;;;;;;27.17;20.70;;;;;;;;;;5095027;28;20081;-54
2020/12/06 09:28:19;;;;;;;29.77;22.08;;;;;;;;;;5091002;28;20148;-54
2020/12/06 09:30:44;;;;;;;30.63;21.02;;;;;;;;;;5092168;28;20017;-56
2020/12/06 09:33:10;;;;;;;26.33;19.70;;;;;;;;;;5086151;28;20042;-54
2020/12/06 09:35:35;;;;;;;30.08;23.33;;;;;;;;;;5085907;28;20141;-50
2020/12/06 09:38:00;;;;;;;34.50;23.55;;;;;;;;;;5093178;28;20019;-56
2020/12/06 09:40:26;;;;;;;34.10;23.55;;;;;;;;;;5098196;28;20035;-56
2020/12/06 09:42:52;;;;;;;36.00;25.45;;;;;;;;;;5094445;28;20028;-54
2020/12/06 09:45:17;;;;;;;34.58;24.80;;;;;;;;;;5094447;28;20463;-54
2020/12/06 09:47:42;;;;;;;25.83;19.95;;;;;;;;;;5093634;28;20028;-54
2020/12/06 09:50:07;;;;;;;19.10;15.85;;;;;;;;;;5087905;28;20039;-55
2020/12/06 09:52:32;;;;;;;23.83;17.65;;;;;;;;;;5088524;28;20025;-55
2020/12/06 09:54:58;;;;;;;19.85;15.82;;;;;;;;;;5085527;28;20015;-54
2020/12/06 09:57:25;;;;;;;17.83;15.70;;;;;;;;;;5090513;28;20034;-51
2020/12/06 09:59:50;;;;;;;19.85;15.90;;;;;;;;;;5091614;28;20043;-56
2020/12/06 10:02:15;;;;;;;18.88;15.73;;;;;;;;;;5094471;28;20388;-53
2020/12/06 10:04:40;;;;;;;17.23;14.80;;;;;;;;;;5094181;28;20470;-56
2020/12/06 10:07:06;;;;;;;16.25;13.35;;;;;;;;;;5093864;28;20024;-56
2020/12/06 10:09:31;;;;;;;17.67;14.05;;;;;;;;;;5091591;28;20034;-55
2020/12/06 10:11:56;;;;;;;18.40;14.02;;;;;;;;;;5093691;28;20020;-53
2020/12/06 10:14:22;;;;;;;18.48;14.82;;;;;;;;;;5094408;28;20048;-52
2020/12/06 10:16:47;;;;;;;15.93;14.02;;;;;;;;;;5091598;28;20016;-56
2020/12/06 10:19:13;;;;;;;15.93;13.98;;;;;;;;;;5089887;28;20024;-51
2020/12/06 10:21:38;;;;;;;15.48;12.80;;;;;;;;;;5093919;28;20074;-53
2020/12/06 10:24:04;;;;;;;15.85;12.60;;;;;;;;;;5093787;28;20024;-58
2020/12/06 10:26:29;;;;;;;17.05;12.77;;;;;;;;;;5086971;28;20027;-55
2020/12/06 10:28:57;;;;;;;14.73;12.55;;;;;;;;;;5077918;28;20024;-56
2020/12/06 10:31:23;;;;;;;16.15;13.65;;;;;;;;;;5093731;28;20466;-53
2020/12/06 10:33:48;;;;;;;14.25;12.75;;;;;;;;;;5087536;28;20025;-57
2020/12/06 10:36:13;;;;;;;15.32;12.82;;;;;;;;;;5075397;28;20115;-52
2020/12/06 10:38:38;;;;;;;16.10;13.38;;;;;;;;;;5090082;28;20028;-53
2020/12/06 10:41:04;;;;;;;13.73;11.75;;;;;;;;;;5084985;28;20024;-54
2020/12/06 10:43:29;;;;;;;15.85;13.02;;;;;;;;;;5093930;28;20031;-52
2020/12/06 10:45:54;;;;;;;16.73;12.85;;;;;;;;;;5088290;28;20532;-55
2020/12/06 10:48:19;;;;;;;12.85;11.55;;;;;;;;;;5090395;28;20027;-55
2020/12/06 10:50:49;;;;;;;15.80;13.25;;;;;;;;;;5091979;28;20020;-56
2020/12/06 10:53:14;;;;;;;15.07;11.63;;;;;;;;;;5091175;28;20023;-55
2020/12/06 10:55:39;;;;;;;14.18;12.15;;;;;;;;;;5090848;28;20043;-54
2020/12/06 10:58:06;;;;;;;13.90;11.45;;;;;;;;;;5090126;28;20020;-56
2020/12/06 11:00:31;;;;;;;13.77;12.30;;;;;;;;;;5091724;28;20008;-56
2020/12/06 11:02:57;;;;;;;12.68;11.13;;;;;;;;;;5093396;28;20524;-52
2020/12/06 11:05:22;;;;;;;12.70;11.40;;;;;;;;;;5091950;28;20494;-51
2020/12/06 11:07:47;;;;;;;14.95;12.73;;;;;;;;;;5083424;28;20363;-51
2020/12/06 11:10:12;;;;;;;14.90;11.60;;;;;;;;;;5087815;28;20028;-54
2020/12/06 11:12:38;;;;;;;15.95;11.93;;;;;;;;;;5084872;28;20062;-52
2020/12/06 11:15:03;;;;;;;15.65;12.77;;;;;;;;;;5088942;28;20496;-55
2020/12/06 11:17:30;;;;;;;14.93;12.73;;;;;;;;;;5085454;28;20073;-55
2020/12/06 11:19:56;;;;;;;15.90;12.52;;;;;;;;;;5090221;28;20077;-54
2020/12/06 11:22:21;;;;;;;14.30;12.20;;;;;;;;;;5090246;28;20044;-52
2020/12/06 11:24:46;;;;;;;13.40;11.23;;;;;;;;;;5092000;28;20024;-54
2020/12/06 11:27:11;;;;;;;14.40;11.60;;;;;;;;;;5091262;28;20475;-48
2020/12/06 11:29:37;;;;;;;13.73;11.57;;;;;;;;;;5089510;28;20087;-50
2020/12/06 11:32:02;;;;;;;12.50;11.20;;;;;;;;;;5093186;28;20360;-52
2020/12/06 11:34:27;;;;;;;13.15;11.38;;;;;;;;;;5092597;28;20004;-57
2020/12/06 11:36:52;;;;;;;13.07;11.07;;;;;;;;;;5092208;28;20370;-54
2020/12/06 11:39:18;;;;;;;12.02;10.60;;;;;;;;;;5085417;28;20031;-51
2020/12/06 11:41:43;;;;;;;12.20;10.13;;;;;;;;;;5089501;28;20016;-53
2020/12/06 11:44:09;;;;;;;12.88;10.25;;;;;;;;;;5093033;28;20031;-54
2020/12/06 11:46:35;;;;;;;12.43;9.30;;;;;;;;;;5091278;28;20382;-55
2020/12/06 11:49:01;;;;;;;13.27;9.70;;;;;;;;;;5088487;28;20023;-53
2020/12/06 11:51:26;;;;;;;11.38;9.98;;;;;;;;;;5092283;28;20431;-56
2020/12/06 11:53:51;;;;;;;13.50;9.88;;;;;;;;;;5090965;28;20012;-55
2020/12/06 11:56:16;;;;;;;13.38;10.45;;;;;;;;;;5092555;28;20023;-56
2020/12/06 11:58:44;;;;;;;12.20;9.73;;;;;;;;;;5088205;28;20535;-52
2020/12/06 12:01:09;;;;;;;13.05;10.55;;;;;;;;;;5090059;28;20074;-57
2020/12/06 12:03:35;;;;;;;14.60;10.55;;;;;;;;;;5088790;28;20043;-56
2020/12/06 12:06:01;;;;;;;13.82;10.57;;;;;;;;;;5092273;28;20020;-53
2020/12/06 12:08:26;;;;;;;17.25;11.48;;;;;;;;;;5086813;28;20031;-57
2020/12/06 12:10:51;;;;;;;11.55;9.98;;;;;;;;;;5091477;28;20024;-56
2020/12/06 12:13:16;;;;;;;12.35;10.32;;;;;;;;;;5092254;28;20020;-56
2020/12/06 12:15:41;;;;;;;12.63;10.70;;;;;;;;;;5092323;28;20120;-53
2020/12/06 12:18:07;;;;;;;13.55;10.20;;;;;;;;;;5088909;28;20188;-56
2020/12/06 12:20:32;;;;;;;11.68;10.40;;;;;;;;;;5089860;28;20067;-53
2020/12/06 12:22:57;;;;;;;13.45;11.55;;;;;;;;;;5090306;28;20570;-53
2020/12/06 12:25:23;;;;;;;13.93;11.35;;;;;;;;;;5092310;28;20099;-55
2020/12/06 12:27:48;;;;;;;12.70;10.45;;;;;;;;;;5091419;28;20166;-54
2020/12/06 12:30:13;;;;;;;12.35;10.38;;;;;;;;;;5088963;28;20035;-54
2020/12/06 12:32:38;;;;;;;14.18;10.43;;;;;;;;;;5092034;28;20024;-52
2020/12/06 12:35:04;;;;;;;12.38;10.77;;;;;;;;;;5094627;28;20458;-51
2020/12/06 12:37:29;;;;;;;11.98;9.95;;;;;;;;;;5095523;28;20158;-56
2020/12/06 12:39:54;;;;;;;12.07;10.13;;;;;;;;;;5091539;28;20385;-56
2020/12/06 12:42:19;;;;;;;12.00;10.35;;;;;;;;;;5096462;28;20022;-56
2020/12/06 12:44:45;;;;;;;14.10;10.80;;;;;;;;;;5096197;28;20031;-56
2020/12/06 12:47:10;;;;;;;12.65;10.73;;;;;;;;;;5095427;28;20028;-57
2020/12/06 12:49:36;;;;;;;13.68;10.60;;;;;;;;;;5092740;28;20020;-52
2020/12/06 12:52:01;;;;;;;11.88;10.35;;;;;;;;;;5094220;28;20023;-55
2020/12/06 12:54:27;;;;;;;14.05;10.88;;;;;;;;;;5094433;28;20030;-55
2020/12/06 12:56:52;;;;;;;13.52;11.15;;;;;;;;;;5095675;28;20115;-50
2020/12/06 12:59:17;;;;;;;11.77;10.38;;;;;;;;;;5092739;28;20036;-54
2020/12/06 13:01:43;;;;;;;13.07;11.52;;;;;;;;;;5096088;28;20377;-53
2020/12/06 13:04:08;;;;;;;13.00;10.88;;;;;;;;;;5093788;28;20056;-57
2020/12/06 13:06:34;;;;;;;12.68;10.35;;;;;;;;;;5095859;28;20031;-54
2020/12/06 13:08:59;;;;;;;13.27;10.43;;;;;;;;;;5091897;28;20020;-54
2020/12/06 13:11:25;;;;;;;13.90;11.07;;;;;;;;;;5095290;28;20107;-57
2020/12/06 13:13:52;;;;;;;13.38;11.10;;;;;;;;;;5094227;28;20386;-55
2020/12/06 13:16:17;;;;;;;16.45;12.23;;;;;;;;;;5092505;28;20482;-55
2020/12/06 13:18:42;;;;;;;15.45;11.93;;;;;;;;;;5092036;28;20031;-52
2020/12/06 13:21:07;;;;;;;14.20;11.75;;;;;;;;;;5095032;28;20016;-51
2020/12/06 13:23:33;;;;;;;13.10;10.95;;;;;;;;;;5094742;28;20504;-54
2020/12/06 13:25:58;;;;;;;11.65;10.25;;;;;;;;;;5095247;28;20024;-51
2020/12/06 13:28:23;;;;;;;12.68;10.90;;;;;;;;;;5091699;28;20213;-56
2020/12/06 13:30:48;;;;;;;15.88;11.13;;;;;;;;;;5093770;28;20039;-56
2020/12/06 13:33:13;;;;;;;13.02;11.10;;;;;;;;;;5094935;28;20012;-55
2020/12/06 13:35:39;;;;;;;14.10;11.10;;;;;;;;;;5095232;28;20095;-54
2020/12/06 13:38:04;;;;;;;13.43;10.77;;;;;;;;;;5092774;28;20107;-51
2020/12/06 13:40:29;;;;;;;13.77;11.50;;;;;;;;;;5092549;28;20047;-53
2020/12/06 13:42:54;;;;;;;16.15;12.50;;;;;;;;;;5093401;28;20024;-56
2020/12/06 13:45:20;;;;;;;21.48;15.20;;;;;;;;;;5092921;28;20028;-54
2020/12/06 13:47:45;;;;;;;22.58;16.95;;;;;;;;;;5093932;28;20034;-56
2020/12/06 13:50:12;;;;;;;20.67;16.85;;;;;;;;;;5089422;28;20062;-58
2020/12/06 13:52:37;;;;;;;18.33;14.57;;;;;;;;;;5093138;28;20028;-55
2020/12/06 13:55:02;;;;;;;20.17;14.10;;;;;;;;;;5092730;28;20027;-55
2020/12/06 13:57:28;;;;;;;17.40;14.23;;;;;;;;;;5094495;28;20027;-54
2020/12/06 13:59:53;;;;;;;16.77;13.95;;;;;;;;;;5090331;28;20539;-52
2020/12/06 14:02:18;;;;;;;16.27;13.65;;;;;;;;;;5091811;28;20039;-57
2020/12/06 14:04:43;;;;;;;18.38;14.75;;;;;;;;;;5094775;28;20031;-54
2020/12/06 14:07:09;;;;;;;19.50;15.05;;;;;;;;;;5093743;28;20023;-56
2020/12/06 14:09:34;;;;;;;17.50;14.35;;;;;;;;;;5091239;28;20026;-53